sensor_id;sensor_type;location;lat;lon;timestamp;P1;durP1;ratioP1;P2;durP2;ratioP2
6394;SDS011;3230;42.588;23.358;2023-04-19T00:01:16;3.43;;;2.20;;
6394;SDS011;3230;42.588;23.358;2023-04-19T00:03:41;2.43;;;1.90;;
6394;SDS011;3230;42.588;23.358;2023-04-19T00:06:06;3.07;;;2.20;;
6394;SDS011;3230;42.588;23.358;2023-04-19T00:08:34;3.20;;;2.57;;
6394;SDS011;3230;42.588;23.358;2023-04-19T00:10:59;3.80;;;2.50;;
6394;SDS011;3230;42.588;23.358;2023-04-19T00:13:25;3.20;;;2.53;;
6394;SDS011;3230;42.588;23.358;2023-04-19T00:15:50;2.93;;;2.40;;
6394;SDS011;3230;42.588;23.358;2023-04-19T00:18:15;3.20;;;2.50;;
6394;SDS011;3230;42.588;23.358;2023-04-19T00:20:41;3.33;;;3.00;;
6394;SDS011;3230;42.588;23.358;2023-04-19T00:23:06;4.20;;;2.27;;
6394;SDS011;3230;42.588;23.358;2023-04-19T00:25:32;3.90;;;2.90;;
6394;SDS011;3230;42.588;23.358;2023-04-19T00:27:58;2.77;;;2.47;;
6394;SDS011;3230;42.588;23.358;2023-04-19T00:30:24;4.03;;;2.40;;
6394;SDS011;3230;42.588;23.358;2023-04-19T00:32:49;3.63;;;2.57;;
6394;SDS011;3230;42.588;23.358;2023-04-19T00:35:15;4.00;;;2.27;;
6394;SDS011;3230;42.588;23.358;2023-04-19T00:37:40;5.07;;;2.60;;
6394;SDS011;3230;42.588;23.358;2023-04-19T00:40:06;3.70;;;2.43;;
6394;SDS011;3230;42.588;23.358;2023-04-19T00:42:31;4.73;;;2.93;;
6394;SDS011;3230;42.588;23.358;2023-04-19T00:44:57;3.73;;;3.00;;
6394;SDS011;3230;42.588;23.358;2023-04-19T00:47:22;4.93;;;3.20;;
6394;SDS011;3230;42.588;23.358;2023-04-19T00:49:48;5.50;;;3.30;;
6394;SDS011;3230;42.588;23.358;2023-04-19T00:52:13;3.80;;;2.87;;
6394;SDS011;3230;42.588;23.358;2023-04-19T00:54:38;5.17;;;3.30;;
6394;SDS011;3230;42.588;23.358;2023-04-19T00:57:07;5.97;;;3.90;;
6394;SDS011;3230;42.588;23.358;2023-04-19T00:59:33;6.23;;;3.17;;
6394;SDS011;3230;42.588;23.358;2023-04-19T01:01:59;6.23;;;3.87;;
6394;SDS011;3230;42.588;23.358;2023-04-19T01:04:25;7.37;;;4.20;;
6394;SDS011;3230;42.588;23.358;2023-04-19T01:06:50;4.80;;;3.70;;
6394;SDS011;3230;42.588;23.358;2023-04-19T01:09:16;5.80;;;3.57;;
6394;SDS011;3230;42.588;23.358;2023-04-19T01:11:41;5.63;;;3.00;;
6394;SDS011;3230;42.588;23.358;2023-04-19T01:14:07;3.47;;;3.17;;
6394;SDS011;3230;42.588;23.358;2023-04-19T01:16:32;4.43;;;3.20;;
6394;SDS011;3230;42.588;23.358;2023-04-19T01:18:58;4.43;;;3.13;;
6394;SDS011;3230;42.588;23.358;2023-04-19T01:21:23;5.03;;;3.90;;
6394;SDS011;3230;42.588;23.358;2023-04-19T01:23:49;4.03;;;3.27;;
6394;SDS011;3230;42.588;23.358;2023-04-19T01:26:15;5.10;;;2.67;;
6394;SDS011;3230;42.588;23.358;2023-04-19T01:28:41;3.30;;;2.87;;
6394;SDS011;3230;42.588;23.358;2023-04-19T01:31:06;3.10;;;2.60;;
6394;SDS011;3230;42.588;23.358;2023-04-19T01:33:32;2.50;;;2.30;;
6394;SDS011;3230;42.588;23.358;2023-04-19T01:35:57;4.20;;;2.90;;
6394;SDS011;3230;42.588;23.358;2023-04-19T01:38:23;3.00;;;2.40;;
6394;SDS011;3230;42.588;23.358;2023-04-19T01:40:48;4.33;;;3.30;;
6394;SDS011;3230;42.588;23.358;2023-04-19T01:43:15;9.23;;;3.30;;
6394;SDS011;3230;42.588;23.358;2023-04-19T01:45:41;3.27;;;2.97;;
6394;SDS011;3230;42.588;23.358;2023-04-19T01:48:07;4.20;;;3.10;;
6394;SDS011;3230;42.588;23.358;2023-04-19T01:50:32;4.93;;;3.40;;
6394;SDS011;3230;42.588;23.358;2023-04-19T01:52:58;4.67;;;3.00;;
6394;SDS011;3230;42.588;23.358;2023-04-19T01:55:24;3.50;;;3.00;;
6394;SDS011;3230;42.588;23.358;2023-04-19T01:57:49;5.03;;;2.53;;
6394;SDS011;3230;42.588;23.358;2023-04-19T02:00:16;3.30;;;2.60;;
6394;SDS011;3230;42.588;23.358;2023-04-19T02:02:42;3.73;;;2.47;;
6394;SDS011;3230;42.588;23.358;2023-04-19T02:05:08;3.60;;;2.70;;
6394;SDS011;3230;42.588;23.358;2023-04-19T02:07:33;6.57;;;2.47;;
6394;SDS011;3230;42.588;23.358;2023-04-19T02:09:59;2.70;;;2.23;;
6394;SDS011;3230;42.588;23.358;2023-04-19T02:12:27;2.40;;;2.00;;
6394;SDS011;3230;42.588;23.358;2023-04-19T02:14:55;2.50;;;2.30;;
6394;SDS011;3230;42.588;23.358;2023-04-19T02:17:21;3.00;;;2.30;;
6394;SDS011;3230;42.588;23.358;2023-04-19T02:19:47;3.73;;;2.87;;
6394;SDS011;3230;42.588;23.358;2023-04-19T02:22:13;4.53;;;3.20;;
6394;SDS011;3230;42.588;23.358;2023-04-19T02:24:38;4.40;;;3.37;;
6394;SDS011;3230;42.588;23.358;2023-04-19T02:27:03;4.63;;;2.77;;
6394;SDS011;3230;42.588;23.358;2023-04-19T02:29:29;2.90;;;2.30;;
6394;SDS011;3230;42.588;23.358;2023-04-19T02:31:54;2.43;;;2.23;;
6394;SDS011;3230;42.588;23.358;2023-04-19T02:34:20;3.40;;;2.70;;
6394;SDS011;3230;42.588;23.358;2023-04-19T02:36:45;3.77;;;3.03;;
6394;SDS011;3230;42.588;23.358;2023-04-19T02:39:11;3.87;;;2.50;;
6394;SDS011;3230;42.588;23.358;2023-04-19T02:41:36;3.30;;;2.20;;
6394;SDS011;3230;42.588;23.358;2023-04-19T02:44:01;2.70;;;2.17;;
6394;SDS011;3230;42.588;23.358;2023-04-19T02:46:27;4.20;;;2.53;;
6394;SDS011;3230;42.588;23.358;2023-04-19T02:48:52;5.70;;;2.53;;
6394;SDS011;3230;42.588;23.358;2023-04-19T02:51:17;5.07;;;2.60;;
6394;SDS011;3230;42.588;23.358;2023-04-19T02:53:43;4.37;;;2.50;;
6394;SDS011;3230;42.588;23.358;2023-04-19T02:56:08;3.23;;;2.50;;
6394;SDS011;3230;42.588;23.358;2023-04-19T02:58:34;3.97;;;2.20;;
6394;SDS011;3230;42.588;23.358;2023-04-19T03:01:00;2.30;;;1.80;;
6394;SDS011;3230;42.588;23.358;2023-04-19T03:03:25;3.00;;;2.30;;
6394;SDS011;3230;42.588;23.358;2023-04-19T03:05:50;3.40;;;2.50;;
6394;SDS011;3230;42.588;23.358;2023-04-19T03:08:16;3.47;;;2.13;;
6394;SDS011;3230;42.588;23.358;2023-04-19T03:10:42;3.00;;;2.50;;
6394;SDS011;3230;42.588;23.358;2023-04-19T03:13:07;4.83;;;2.70;;
6394;SDS011;3230;42.588;23.358;2023-04-19T03:15:33;3.43;;;2.53;;
6394;SDS011;3230;42.588;23.358;2023-04-19T03:17:58;3.37;;;2.93;;
6394;SDS011;3230;42.588;23.358;2023-04-19T03:20:24;3.97;;;3.27;;
6394;SDS011;3230;42.588;23.358;2023-04-19T03:22:50;4.33;;;3.50;;
6394;SDS011;3230;42.588;23.358;2023-04-19T03:25:15;5.43;;;3.60;;
6394;SDS011;3230;42.588;23.358;2023-04-19T03:27:41;5.83;;;3.53;;
6394;SDS011;3230;42.588;23.358;2023-04-19T03:30:09;3.87;;;3.40;;
6394;SDS011;3230;42.588;23.358;2023-04-19T03:32:36;5.00;;;4.10;;
6394;SDS011;3230;42.588;23.358;2023-04-19T03:35:01;5.90;;;4.40;;
6394;SDS011;3230;42.588;23.358;2023-04-19T03:37:26;7.90;;;5.10;;
6394;SDS011;3230;42.588;23.358;2023-04-19T03:39:52;7.83;;;5.10;;
6394;SDS011;3230;42.588;23.358;2023-04-19T03:42:17;7.10;;;4.63;;
6394;SDS011;3230;42.588;23.358;2023-04-19T03:44:43;7.13;;;4.80;;
6394;SDS011;3230;42.588;23.358;2023-04-19T03:47:08;12.20;;;8.40;;
6394;SDS011;3230;42.588;23.358;2023-04-19T03:49:34;11.60;;;7.60;;
6394;SDS011;3230;42.588;23.358;2023-04-19T03:51:59;5.57;;;4.10;;
6394;SDS011;3230;42.588;23.358;2023-04-19T03:54:24;7.83;;;3.90;;
6394;SDS011;3230;42.588;23.358;2023-04-19T03:56:50;4.70;;;3.47;;
6394;SDS011;3230;42.588;23.358;2023-04-19T03:59:15;6.27;;;4.07;;
6394;SDS011;3230;42.588;23.358;2023-04-19T04:01:41;6.50;;;4.10;;
6394;SDS011;3230;42.588;23.358;2023-04-19T04:04:07;5.67;;;4.10;;
6394;SDS011;3230;42.588;23.358;2023-04-19T04:06:33;6.00;;;3.93;;
6394;SDS011;3230;42.588;23.358;2023-04-19T04:08:58;7.03;;;4.03;;
6394;SDS011;3230;42.588;23.358;2023-04-19T04:11:24;6.40;;;4.03;;
6394;SDS011;3230;42.588;23.358;2023-04-19T04:13:50;4.20;;;3.30;;
6394;SDS011;3230;42.588;23.358;2023-04-19T04:16:15;7.50;;;3.37;;
6394;SDS011;3230;42.588;23.358;2023-04-19T04:18:41;5.87;;;3.80;;
6394;SDS011;3230;42.588;23.358;2023-04-19T04:21:06;8.30;;;3.50;;
6394;SDS011;3230;42.588;23.358;2023-04-19T04:23:31;7.47;;;3.87;;
6394;SDS011;3230;42.588;23.358;2023-04-19T04:25:58;6.20;;;4.23;;
6394;SDS011;3230;42.588;23.358;2023-04-19T04:28:29;5.63;;;4.13;;
6394;SDS011;3230;42.588;23.358;2023-04-19T04:30:55;5.53;;;3.83;;
6394;SDS011;3230;42.588;23.358;2023-04-19T04:33:25;6.80;;;4.33;;
6394;SDS011;3230;42.588;23.358;2023-04-19T04:35:53;6.37;;;4.80;;
6394;SDS011;3230;42.588;23.358;2023-04-19T04:38:20;5.23;;;3.53;;
6394;SDS011;3230;42.588;23.358;2023-04-19T04:40:52;5.50;;;4.23;;
6394;SDS011;3230;42.588;23.358;2023-04-19T04:43:18;4.97;;;3.50;;
6394;SDS011;3230;42.588;23.358;2023-04-19T04:45:47;7.03;;;3.87;;
6394;SDS011;3230;42.588;23.358;2023-04-19T04:48:13;5.70;;;3.93;;
6394;SDS011;3230;42.588;23.358;2023-04-19T04:50:39;5.10;;;2.93;;
6394;SDS011;3230;42.588;23.358;2023-04-19T04:53:04;4.13;;;3.70;;
6394;SDS011;3230;42.588;23.358;2023-04-19T04:55:30;4.63;;;3.73;;
6394;SDS011;3230;42.588;23.358;2023-04-19T04:57:56;5.27;;;3.60;;
6394;SDS011;3230;42.588;23.358;2023-04-19T05:00:21;4.80;;;3.60;;
6394;SDS011;3230;42.588;23.358;2023-04-19T05:02:47;5.70;;;3.83;;
6394;SDS011;3230;42.588;23.358;2023-04-19T05:05:13;4.30;;;3.30;;
6394;SDS011;3230;42.588;23.358;2023-04-19T05:07:38;4.30;;;3.60;;
6394;SDS011;3230;42.588;23.358;2023-04-19T05:10:04;4.70;;;3.20;;
6394;SDS011;3230;42.588;23.358;2023-04-19T05:12:30;3.60;;;3.10;;
6394;SDS011;3230;42.588;23.358;2023-04-19T05:14:55;3.77;;;3.20;;
6394;SDS011;3230;42.588;23.358;2023-04-19T05:17:21;2.90;;;2.60;;
6394;SDS011;3230;42.588;23.358;2023-04-19T05:19:46;4.47;;;3.40;;
6394;SDS011;3230;42.588;23.358;2023-04-19T05:22:12;4.50;;;3.17;;
6394;SDS011;3230;42.588;23.358;2023-04-19T05:24:38;4.17;;;3.60;;
6394;SDS011;3230;42.588;23.358;2023-04-19T05:27:04;3.77;;;2.80;;
6394;SDS011;3230;42.588;23.358;2023-04-19T05:29:30;4.33;;;3.23;;
6394;SDS011;3230;42.588;23.358;2023-04-19T05:31:56;5.77;;;3.63;;
6394;SDS011;3230;42.588;23.358;2023-04-19T05:34:22;4.80;;;3.30;;
6394;SDS011;3230;42.588;23.358;2023-04-19T05:36:47;3.73;;;2.80;;
6394;SDS011;3230;42.588;23.358;2023-04-19T05:39:12;2.73;;;2.47;;
6394;SDS011;3230;42.588;23.358;2023-04-19T05:41:38;5.63;;;3.20;;
6394;SDS011;3230;42.588;23.358;2023-04-19T05:44:03;4.37;;;2.83;;
6394;SDS011;3230;42.588;23.358;2023-04-19T05:46:29;4.83;;;3.10;;
6394;SDS011;3230;42.588;23.358;2023-04-19T05:48:54;5.03;;;3.20;;
6394;SDS011;3230;42.588;23.358;2023-04-19T05:51:20;4.27;;;3.30;;
6394;SDS011;3230;42.588;23.358;2023-04-19T05:53:45;4.33;;;3.50;;
6394;SDS011;3230;42.588;23.358;2023-04-19T05:56:10;4.33;;;3.47;;
6394;SDS011;3230;42.588;23.358;2023-04-19T05:58:36;4.97;;;3.27;;
6394;SDS011;3230;42.588;23.358;2023-04-19T06:01:01;9.97;;;3.07;;
6394;SDS011;3230;42.588;23.358;2023-04-19T06:03:28;4.57;;;3.50;;
6394;SDS011;3230;42.588;23.358;2023-04-19T06:05:54;4.10;;;3.10;;
6394;SDS011;3230;42.588;23.358;2023-04-19T06:08:19;3.97;;;3.20;;
6394;SDS011;3230;42.588;23.358;2023-04-19T06:10:45;4.77;;;3.27;;
6394;SDS011;3230;42.588;23.358;2023-04-19T06:13:13;5.40;;;3.37;;
6394;SDS011;3230;42.588;23.358;2023-04-19T06:15:39;4.87;;;3.30;;
6394;SDS011;3230;42.588;23.358;2023-04-19T06:18:05;4.40;;;2.80;;
6394;SDS011;3230;42.588;23.358;2023-04-19T06:20:35;4.90;;;3.20;;
6394;SDS011;3230;42.588;23.358;2023-04-19T06:23:01;4.47;;;3.17;;
6394;SDS011;3230;42.588;23.358;2023-04-19T06:25:26;2.93;;;2.63;;
6394;SDS011;3230;42.588;23.358;2023-04-19T06:27:52;3.37;;;3.00;;
6394;SDS011;3230;42.588;23.358;2023-04-19T06:30:17;4.77;;;3.37;;
6394;SDS011;3230;42.588;23.358;2023-04-19T06:32:43;3.30;;;2.70;;
6394;SDS011;3230;42.588;23.358;2023-04-19T06:35:08;4.10;;;3.20;;
6394;SDS011;3230;42.588;23.358;2023-04-19T06:37:34;4.33;;;3.70;;
6394;SDS011;3230;42.588;23.358;2023-04-19T06:39:59;5.77;;;3.30;;
6394;SDS011;3230;42.588;23.358;2023-04-19T06:42:25;4.70;;;3.40;;
6394;SDS011;3230;42.588;23.358;2023-04-19T06:44:51;5.10;;;3.27;;
6394;SDS011;3230;42.588;23.358;2023-04-19T06:47:17;5.73;;;4.00;;
6394;SDS011;3230;42.588;23.358;2023-04-19T06:49:43;4.27;;;3.10;;
6394;SDS011;3230;42.588;23.358;2023-04-19T06:52:08;4.20;;;3.53;;
6394;SDS011;3230;42.588;23.358;2023-04-19T06:54:34;3.73;;;2.90;;
6394;SDS011;3230;42.588;23.358;2023-04-19T06:56:59;3.70;;;2.90;;
6394;SDS011;3230;42.588;23.358;2023-04-19T06:59:26;3.77;;;2.97;;
6394;SDS011;3230;42.588;23.358;2023-04-19T07:01:52;4.53;;;2.60;;
6394;SDS011;3230;42.588;23.358;2023-04-19T07:04:18;3.20;;;2.60;;
6394;SDS011;3230;42.588;23.358;2023-04-19T07:06:46;3.10;;;2.80;;
6394;SDS011;3230;42.588;23.358;2023-04-19T07:09:13;3.33;;;3.03;;
6394;SDS011;3230;42.588;23.358;2023-04-19T07:11:39;8.00;;;3.00;;
6394;SDS011;3230;42.588;23.358;2023-04-19T07:14:04;3.90;;;3.03;;
6394;SDS011;3230;42.588;23.358;2023-04-19T07:16:30;11.53;;;4.10;;
6394;SDS011;3230;42.588;23.358;2023-04-19T07:18:55;2.90;;;2.60;;
6394;SDS011;3230;42.588;23.358;2023-04-19T07:21:21;3.50;;;2.50;;
6394;SDS011;3230;42.588;23.358;2023-04-19T07:23:49;3.17;;;2.50;;
6394;SDS011;3230;42.588;23.358;2023-04-19T07:26:14;3.80;;;2.47;;
6394;SDS011;3230;42.588;23.358;2023-04-19T07:28:40;4.03;;;2.53;;
6394;SDS011;3230;42.588;23.358;2023-04-19T07:31:05;3.30;;;3.00;;
6394;SDS011;3230;42.588;23.358;2023-04-19T07:33:31;3.73;;;2.50;;
6394;SDS011;3230;42.588;23.358;2023-04-19T07:35:56;4.40;;;2.23;;
6394;SDS011;3230;42.588;23.358;2023-04-19T07:38:22;2.20;;;2.00;;
6394;SDS011;3230;42.588;23.358;2023-04-19T07:40:48;3.63;;;2.40;;
6394;SDS011;3230;42.588;23.358;2023-04-19T07:43:14;3.23;;;2.70;;
6394;SDS011;3230;42.588;23.358;2023-04-19T07:45:39;2.87;;;2.30;;
6394;SDS011;3230;42.588;23.358;2023-04-19T07:48:05;2.90;;;2.37;;
6394;SDS011;3230;42.588;23.358;2023-04-19T07:50:30;4.40;;;2.63;;
6394;SDS011;3230;42.588;23.358;2023-04-19T07:52:56;2.90;;;2.17;;
6394;SDS011;3230;42.588;23.358;2023-04-19T07:55:22;3.53;;;2.27;;
6394;SDS011;3230;42.588;23.358;2023-04-19T07:57:48;2.20;;;1.77;;
6394;SDS011;3230;42.588;23.358;2023-04-19T08:00:14;2.33;;;1.90;;
6394;SDS011;3230;42.588;23.358;2023-04-19T08:02:46;2.83;;;2.00;;
6394;SDS011;3230;42.588;23.358;2023-04-19T08:05:13;2.50;;;1.93;;
6394;SDS011;3230;42.588;23.358;2023-04-19T08:07:41;2.60;;;1.90;;
6394;SDS011;3230;42.588;23.358;2023-04-19T08:10:07;2.20;;;1.90;;
6394;SDS011;3230;42.588;23.358;2023-04-19T08:12:33;3.50;;;1.67;;
6394;SDS011;3230;42.588;23.358;2023-04-19T08:14:59;5.20;;;1.90;;
6394;SDS011;3230;42.588;23.358;2023-04-19T08:17:25;11.07;;;1.90;;
6394;SDS011;3230;42.588;23.358;2023-04-19T08:19:51;2.30;;;1.60;;
6394;SDS011;3230;42.588;23.358;2023-04-19T08:22:16;3.70;;;2.00;;
6394;SDS011;3230;42.588;23.358;2023-04-19T08:24:42;2.90;;;2.00;;
6394;SDS011;3230;42.588;23.358;2023-04-19T08:27:08;1.60;;;1.30;;
6394;SDS011;3230;42.588;23.358;2023-04-19T08:29:34;2.40;;;1.80;;
6394;SDS011;3230;42.588;23.358;2023-04-19T08:32:00;2.60;;;1.90;;
6394;SDS011;3230;42.588;23.358;2023-04-19T08:34:26;2.10;;;1.90;;
6394;SDS011;3230;42.588;23.358;2023-04-19T08:36:52;2.30;;;2.10;;
6394;SDS011;3230;42.588;23.358;2023-04-19T08:39:17;3.00;;;2.50;;
6394;SDS011;3230;42.588;23.358;2023-04-19T08:41:43;4.50;;;1.97;;
6394;SDS011;3230;42.588;23.358;2023-04-19T08:44:09;5.80;;;2.23;;
6394;SDS011;3230;42.588;23.358;2023-04-19T08:46:36;2.10;;;1.90;;
6394;SDS011;3230;42.588;23.358;2023-04-19T08:49:03;3.00;;;2.43;;
6394;SDS011;3230;42.588;23.358;2023-04-19T08:51:30;3.17;;;2.40;;
6394;SDS011;3230;42.588;23.358;2023-04-19T08:53:56;3.83;;;2.47;;
6394;SDS011;3230;42.588;23.358;2023-04-19T08:56:23;2.93;;;2.23;;
6394;SDS011;3230;42.588;23.358;2023-04-19T08:58:49;3.10;;;2.27;;
6394;SDS011;3230;42.588;23.358;2023-04-19T09:01:15;2.70;;;2.27;;
6394;SDS011;3230;42.588;23.358;2023-04-19T09:03:44;2.80;;;2.30;;
6394;SDS011;3230;42.588;23.358;2023-04-19T09:06:10;2.43;;;1.80;;
6394;SDS011;3230;42.588;23.358;2023-04-19T09:08:39;3.00;;;2.00;;
6394;SDS011;3230;42.588;23.358;2023-04-19T09:11:06;2.87;;;2.20;;
6394;SDS011;3230;42.588;23.358;2023-04-19T09:13:31;3.23;;;2.57;;
6394;SDS011;3230;42.588;23.358;2023-04-19T09:15:57;2.80;;;2.20;;
6394;SDS011;3230;42.588;23.358;2023-04-19T09:18:25;2.57;;;2.00;;
6394;SDS011;3230;42.588;23.358;2023-04-19T09:20:51;3.10;;;2.13;;
6394;SDS011;3230;42.588;23.358;2023-04-19T09:23:24;2.50;;;1.90;;
6394;SDS011;3230;42.588;23.358;2023-04-19T09:28:28;2.23;;;1.70;;
6394;SDS011;3230;42.588;23.358;2023-04-19T09:30:55;2.50;;;2.00;;
6394;SDS011;3230;42.588;23.358;2023-04-19T09:33:31;2.73;;;2.37;;
6394;SDS011;3230;42.588;23.358;2023-04-19T09:35:58;3.73;;;2.40;;
6394;SDS011;3230;42.588;23.358;2023-04-19T09:38:23;19.63;;;4.40;;
6394;SDS011;3230;42.588;23.358;2023-04-19T09:40:49;6.23;;;2.30;;
6394;SDS011;3230;42.588;23.358;2023-04-19T09:43:23;9.47;;;2.97;;
6394;SDS011;3230;42.588;23.358;2023-04-19T09:45:52;3.10;;;2.50;;
6394;SDS011;3230;42.588;23.358;2023-04-19T09:48:17;3.37;;;2.43;;
6394;SDS011;3230;42.588;23.358;2023-04-19T09:53:18;2.70;;;2.03;;
6394;SDS011;3230;42.588;23.358;2023-04-19T09:55:44;4.13;;;2.57;;
6394;SDS011;3230;42.588;23.358;2023-04-19T09:58:14;7.30;;;2.70;;
6394;SDS011;3230;42.588;23.358;2023-04-19T10:00:40;3.57;;;2.30;;
6394;SDS011;3230;42.588;23.358;2023-04-19T10:03:08;3.37;;;2.30;;
6394;SDS011;3230;42.588;23.358;2023-04-19T10:05:37;7.23;;;2.93;;
6394;SDS011;3230;42.588;23.358;2023-04-19T10:08:07;3.93;;;2.70;;
6394;SDS011;3230;42.588;23.358;2023-04-19T10:10:34;4.47;;;2.70;;
6394;SDS011;3230;42.588;23.358;2023-04-19T10:13:01;3.53;;;2.33;;
6394;SDS011;3230;42.588;23.358;2023-04-19T10:15:29;6.20;;;2.70;;
6394;SDS011;3230;42.588;23.358;2023-04-19T10:17:55;5.77;;;2.53;;
6394;SDS011;3230;42.588;23.358;2023-04-19T10:21:05;3.00;;;2.20;;
6394;SDS011;3230;42.588;23.358;2023-04-19T10:23:18;2.90;;;2.23;;
6394;SDS011;3230;42.588;23.358;2023-04-19T10:25:45;3.83;;;1.80;;
6394;SDS011;3230;42.588;23.358;2023-04-19T10:28:12;2.10;;;1.90;;
6394;SDS011;3230;42.588;23.358;2023-04-19T10:30:51;3.90;;;2.50;;
6394;SDS011;3230;42.588;23.358;2023-04-19T10:33:26;2.43;;;1.97;;
6394;SDS011;3230;42.588;23.358;2023-04-19T10:35:56;3.40;;;2.17;;
6394;SDS011;3230;42.588;23.358;2023-04-19T10:38:38;3.47;;;2.00;;
6394;SDS011;3230;42.588;23.358;2023-04-19T10:41:07;2.80;;;2.00;;
6394;SDS011;3230;42.588;23.358;2023-04-19T10:43:36;2.60;;;2.27;;
6394;SDS011;3230;42.588;23.358;2023-04-19T10:46:07;2.50;;;1.90;;
6394;SDS011;3230;42.588;23.358;2023-04-19T10:48:33;5.03;;;2.37;;
6394;SDS011;3230;42.588;23.358;2023-04-19T10:51:12;4.67;;;2.20;;
6394;SDS011;3230;42.588;23.358;2023-04-19T10:53:46;2.17;;;1.90;;
6394;SDS011;3230;42.588;23.358;2023-04-19T10:56:13;2.73;;;1.70;;
6394;SDS011;3230;42.588;23.358;2023-04-19T11:01:38;2.20;;;1.90;;
6394;SDS011;3230;42.588;23.358;2023-04-19T11:04:04;2.80;;;2.10;;
6394;SDS011;3230;42.588;23.358;2023-04-19T11:06:33;1.93;;;1.73;;
6394;SDS011;3230;42.588;23.358;2023-04-19T11:09:00;7.33;;;2.70;;
6394;SDS011;3230;42.588;23.358;2023-04-19T11:11:34;2.87;;;1.90;;
6394;SDS011;3230;42.588;23.358;2023-04-19T11:14:00;1.97;;;1.77;;
6394;SDS011;3230;42.588;23.358;2023-04-19T11:16:32;1.70;;;1.60;;
6394;SDS011;3230;42.588;23.358;2023-04-19T11:18:57;1.50;;;1.40;;
6394;SDS011;3230;42.588;23.358;2023-04-19T11:21:23;2.27;;;1.50;;
6394;SDS011;3230;42.588;23.358;2023-04-19T11:24:04;1.90;;;1.63;;
6394;SDS011;3230;42.588;23.358;2023-04-19T11:26:30;1.90;;;1.60;;
6394;SDS011;3230;42.588;23.358;2023-04-19T11:28:55;4.10;;;2.33;;
6394;SDS011;3230;42.588;23.358;2023-04-19T11:31:21;2.80;;;1.83;;
6394;SDS011;3230;42.588;23.358;2023-04-19T11:33:47;1.90;;;1.50;;
6394;SDS011;3230;42.588;23.358;2023-04-19T11:36:12;1.90;;;1.60;;
6394;SDS011;3230;42.588;23.358;2023-04-19T11:38:38;2.10;;;1.60;;
6394;SDS011;3230;42.588;23.358;2023-04-19T11:41:03;2.17;;;1.50;;
6394;SDS011;3230;42.588;23.358;2023-04-19T11:43:33;2.63;;;1.53;;
6394;SDS011;3230;42.588;23.358;2023-04-19T11:46:18;2.30;;;1.87;;
6394;SDS011;3230;42.588;23.358;2023-04-19T11:48:50;2.70;;;1.57;;
6394;SDS011;3230;42.588;23.358;2023-04-19T11:51:17;1.90;;;1.80;;
6394;SDS011;3230;42.588;23.358;2023-04-19T11:53:42;5.63;;;1.83;;
6394;SDS011;3230;42.588;23.358;2023-04-19T11:56:08;2.00;;;1.80;;
6394;SDS011;3230;42.588;23.358;2023-04-19T11:58:41;3.37;;;2.20;;
6394;SDS011;3230;42.588;23.358;2023-04-19T12:01:18;2.27;;;1.90;;
6394;SDS011;3230;42.588;23.358;2023-04-19T12:03:49;2.13;;;1.93;;
6394;SDS011;3230;42.588;23.358;2023-04-19T12:06:17;3.60;;;2.17;;
6394;SDS011;3230;42.588;23.358;2023-04-19T12:08:46;2.37;;;1.90;;
6394;SDS011;3230;42.588;23.358;2023-04-19T12:11:13;1.83;;;1.67;;
6394;SDS011;3230;42.588;23.358;2023-04-19T12:13:40;2.70;;;1.90;;
6394;SDS011;3230;42.588;23.358;2023-04-19T12:16:08;2.43;;;1.87;;
6394;SDS011;3230;42.588;23.358;2023-04-19T12:18:47;4.60;;;1.80;;
6394;SDS011;3230;42.588;23.358;2023-04-19T12:21:24;3.20;;;1.90;;
6394;SDS011;3230;42.588;23.358;2023-04-19T12:23:52;1.43;;;1.33;;
6394;SDS011;3230;42.588;23.358;2023-04-19T12:26:18;1.93;;;1.60;;
6394;SDS011;3230;42.588;23.358;2023-04-19T12:28:44;2.20;;;2.00;;
6394;SDS011;3230;42.588;23.358;2023-04-19T12:31:09;1.83;;;1.60;;
6394;SDS011;3230;42.588;23.358;2023-04-19T12:33:35;99.33;;;8.93;;
6394;SDS011;3230;42.588;23.358;2023-04-19T12:36:00;2.30;;;1.87;;
6394;SDS011;3230;42.588;23.358;2023-04-19T12:38:25;1.90;;;1.63;;
6394;SDS011;3230;42.588;23.358;2023-04-19T12:40:51;1.90;;;1.63;;
6394;SDS011;3230;42.588;23.358;2023-04-19T12:43:16;1.30;;;1.17;;
6394;SDS011;3230;42.588;23.358;2023-04-19T12:45:42;2.63;;;1.50;;
6394;SDS011;3230;42.588;23.358;2023-04-19T12:48:07;1.60;;;1.30;;
6394;SDS011;3230;42.588;23.358;2023-04-19T12:50:33;6.30;;;1.73;;
6394;SDS011;3230;42.588;23.358;2023-04-19T12:52:58;1.90;;;1.60;;
6394;SDS011;3230;42.588;23.358;2023-04-19T12:55:23;10.97;;;2.17;;
6394;SDS011;3230;42.588;23.358;2023-04-19T12:57:49;2.30;;;1.50;;
6394;SDS011;3230;42.588;23.358;2023-04-19T13:00:15;3.20;;;1.50;;
6394;SDS011;3230;42.588;23.358;2023-04-19T13:02:41;2.87;;;2.10;;
6394;SDS011;3230;42.588;23.358;2023-04-19T13:05:07;1.97;;;1.77;;
6394;SDS011;3230;42.588;23.358;2023-04-19T13:07:32;2.20;;;2.00;;
6394;SDS011;3230;42.588;23.358;2023-04-19T13:09:58;5.17;;;2.40;;
6394;SDS011;3230;42.588;23.358;2023-04-19T13:12:24;2.50;;;2.10;;
6394;SDS011;3230;42.588;23.358;2023-04-19T13:14:50;3.80;;;2.73;;
6394;SDS011;3230;42.588;23.358;2023-04-19T13:17:19;4.00;;;2.73;;
6394;SDS011;3230;42.588;23.358;2023-04-19T13:19:44;6.50;;;3.60;;
6394;SDS011;3230;42.588;23.358;2023-04-19T13:22:10;6.60;;;3.63;;
6394;SDS011;3230;42.588;23.358;2023-04-19T13:24:35;13.00;;;3.23;;
6394;SDS011;3230;42.588;23.358;2023-04-19T13:27:01;6.10;;;3.90;;
6394;SDS011;3230;42.588;23.358;2023-04-19T13:29:26;5.07;;;2.60;;
6394;SDS011;3230;42.588;23.358;2023-04-19T13:31:53;4.07;;;2.60;;
6394;SDS011;3230;42.588;23.358;2023-04-19T13:34:18;10.70;;;2.60;;
6394;SDS011;3230;42.588;23.358;2023-04-19T13:36:43;4.13;;;2.40;;
6394;SDS011;3230;42.588;23.358;2023-04-19T13:39:09;2.20;;;1.90;;
6394;SDS011;3230;42.588;23.358;2023-04-19T13:41:34;2.40;;;2.10;;
6394;SDS011;3230;42.588;23.358;2023-04-19T13:44:00;1.60;;;1.50;;
6394;SDS011;3230;42.588;23.358;2023-04-19T13:46:25;4.80;;;2.13;;
6394;SDS011;3230;42.588;23.358;2023-04-19T13:48:51;7.97;;;2.00;;
6394;SDS011;3230;42.588;23.358;2023-04-19T13:51:16;1.87;;;1.63;;
6394;SDS011;3230;42.588;23.358;2023-04-19T13:53:42;7.43;;;2.00;;
6394;SDS011;3230;42.588;23.358;2023-04-19T13:56:07;2.30;;;1.60;;
6394;SDS011;3230;42.588;23.358;2023-04-19T13:58:34;3.17;;;1.70;;
6394;SDS011;3230;42.588;23.358;2023-04-19T14:01:00;2.00;;;1.77;;
6394;SDS011;3230;42.588;23.358;2023-04-19T14:03:26;16.30;;;2.67;;
6394;SDS011;3230;42.588;23.358;2023-04-19T14:05:51;1.97;;;1.70;;
6394;SDS011;3230;42.588;23.358;2023-04-19T14:08:17;2.33;;;1.90;;
6394;SDS011;3230;42.588;23.358;2023-04-19T14:10:42;3.57;;;1.87;;
6394;SDS011;3230;42.588;23.358;2023-04-19T14:13:08;1.70;;;1.47;;
6394;SDS011;3230;42.588;23.358;2023-04-19T14:15:33;3.30;;;1.73;;
6394;SDS011;3230;42.588;23.358;2023-04-19T14:17:59;2.90;;;2.03;;
6394;SDS011;3230;42.588;23.358;2023-04-19T14:20:24;2.40;;;1.87;;
6394;SDS011;3230;42.588;23.358;2023-04-19T14:22:50;3.40;;;2.50;;
6394;SDS011;3230;42.588;23.358;2023-04-19T14:25:15;5.13;;;3.23;;
6394;SDS011;3230;42.588;23.358;2023-04-19T14:27:44;4.07;;;2.97;;
6394;SDS011;3230;42.588;23.358;2023-04-19T14:30:09;6.90;;;2.47;;
6394;SDS011;3230;42.588;23.358;2023-04-19T14:32:35;2.63;;;2.17;;
6394;SDS011;3230;42.588;23.358;2023-04-19T14:35:00;3.63;;;2.40;;
6394;SDS011;3230;42.588;23.358;2023-04-19T14:37:26;3.80;;;2.60;;
6394;SDS011;3230;42.588;23.358;2023-04-19T14:39:51;4.67;;;2.43;;
6394;SDS011;3230;42.588;23.358;2023-04-19T14:42:17;5.90;;;2.87;;
6394;SDS011;3230;42.588;23.358;2023-04-19T14:44:43;3.13;;;2.73;;
6394;SDS011;3230;42.588;23.358;2023-04-19T14:47:09;5.00;;;2.80;;
6394;SDS011;3230;42.588;23.358;2023-04-19T14:49:35;3.20;;;2.63;;
6394;SDS011;3230;42.588;23.358;2023-04-19T14:52:00;4.70;;;3.00;;
6394;SDS011;3230;42.588;23.358;2023-04-19T14:54:27;7.20;;;2.60;;
6394;SDS011;3230;42.588;23.358;2023-04-19T14:56:53;5.77;;;3.03;;
6394;SDS011;3230;42.588;23.358;2023-04-19T14:59:18;9.73;;;3.03;;
6394;SDS011;3230;42.588;23.358;2023-04-19T15:01:44;4.20;;;2.67;;
6394;SDS011;3230;42.588;23.358;2023-04-19T15:04:09;3.80;;;2.60;;